Terminal Aerodrome Forecast
Issued by NWS Jackson, KY

Home | Current Version | Previous Version | Text Only | Print | Product List | Glossary On
Versions: 1 2 3 4 5 6 7 8 9 10 11 12 13 14 15
000
FTUS43 KJKL 181739
TAFJKL
TAF
KJKL 181739Z 1818/1918 23010G22KT P6SM FEW250
     FM190300 27015G30KT 5SM -SHRA OVC025
     FM190400 28015G25KT P6SM BKN035
     FM190900 28010KT P6SM BKN030
     FM191400 28010KT P6SM OVC015
     FM191700 30010G17KT P6SM BKN020=

USA.gov is the U.S. government's official web portal to all federal, state and local government web resources and services.